Time;durP1;ratioP1;P1;durP2;ratioP2;P2;SDS_P1;SDS_P2;PMS_P1;PMS_P2;Temp;Humidity;BMP_temperature;BMP_pressure;BME280_temperature;BME280_humidity;BME280_pressure;Samples;Min_cycle;Max_cycle;Signal;HPM_P1;HPM_P2
2023/03/06 00:00:32;;;;;;;9.07;1.87;;;;;;;2.35;100.00;99991.31;4995680;28;20480;-66
2023/03/06 00:02:59;;;;;;;8.27;2.50;;;;;;;2.36;100.00;99992.91;4995275;28;20985;-66
2023/03/06 00:05:27;;;;;;;5.40;1.73;;;;;;;2.27;100.00;99986.47;4995102;28;21086;-67
2023/03/06 00:07:53;;;;;;;10.40;2.27;;;;;;;2.18;100.00;99986.16;4995505;28;20447;-67
2023/03/06 00:10:22;;;;;;;12.20;2.03;;;;;;;2.06;100.00;99984.75;4995415;28;20451;-67
2023/03/06 00:12:51;;;;;;;6.13;1.30;;;;;;;2.05;100.00;99985.81;4995438;28;20445;-67
2023/03/06 00:15:18;;;;;;;4.50;1.20;;;;;;;2.00;100.00;99981.25;4995057;28;20465;-67
2023/03/06 00:17:45;;;;;;;6.33;1.77;;;;;;;1.88;100.00;99976.09;4995387;28;20858;-67
2023/03/06 00:20:12;;;;;;;5.30;1.37;;;;;;;1.92;100.00;99976.41;4995284;28;20819;-67
2023/03/06 00:22:39;;;;;;;6.20;1.67;;;;;;;1.94;100.00;99968.91;4994980;28;20483;-67
2023/03/06 00:25:07;;;;;;;5.73;1.37;;;;;;;1.91;100.00;99969.47;4993995;28;20515;-67
2023/03/06 00:27:34;;;;;;;4.73;0.90;;;;;;;1.83;100.00;99965.41;4995009;28;20445;-67
2023/03/06 00:30:02;;;;;;;8.83;1.40;;;;;;;1.88;100.00;99969.97;4995111;28;20448;-67
2023/03/06 00:32:29;;;;;;;5.40;1.17;;;;;;;1.89;100.00;99958.22;4995033;28;20552;-67
2023/03/06 00:34:56;;;;;;;5.27;1.20;;;;;;;1.85;100.00;99955.25;4994936;28;20460;-67
2023/03/06 00:37:24;;;;;;;7.00;1.87;;;;;;;1.84;100.00;99950.19;4994625;28;20451;-67
2023/03/06 00:39:51;;;;;;;5.07;1.00;;;;;;;1.76;100.00;99941.59;4994844;28;20944;-68
2023/03/06 00:42:18;;;;;;;5.27;1.40;;;;;;;1.76;100.00;99946.13;4994862;28;20449;-67
2023/03/06 00:44:44;;;;;;;5.73;1.60;;;;;;;1.81;100.00;99938.13;4994682;28;20492;-67
2023/03/06 00:47:15;;;;;;;7.80;2.03;;;;;;;1.78;100.00;99930.66;4994730;28;20445;-67
2023/03/06 00:49:42;;;;;;;5.67;1.53;;;;;;;1.72;100.00;99929.81;4994736;28;20947;-67
2023/03/06 00:52:09;;;;;;;4.50;1.10;;;;;;;1.78;100.00;99922.66;4994678;28;20445;-67
2023/03/06 00:54:36;;;;;;;4.83;1.40;;;;;;;1.76;100.00;99920.22;5021017;23;20508;-66
2023/03/06 00:57:02;;;;;;;6.30;2.07;;;;;;;1.82;100.00;99914.94;5014267;28;20444;-66
2023/03/06 00:59:29;;;;;;;7.60;1.70;;;;;;;1.86;100.00;99906.16;5014088;28;20444;-65
2023/03/06 01:01:56;;;;;;;6.33;1.70;;;;;;;1.85;100.00;99906.38;5013679;28;20452;-66
2023/03/06 01:04:24;;;;;;;5.43;1.63;;;;;;;1.92;100.00;99893.63;5013652;28;20584;-67
2023/03/06 01:06:50;;;;;;;5.60;1.53;;;;;;;1.94;100.00;99883.47;5013942;28;20440;-66
2023/03/06 01:09:17;;;;;;;8.43;2.13;;;;;;;1.98;100.00;99882.69;5013944;28;20444;-66
2023/03/06 01:11:44;;;;;;;6.83;1.97;;;;;;;1.94;100.00;99886.13;5013828;28;20440;-66
2023/03/06 01:14:10;;;;;;;8.10;1.60;;;;;;;1.94;100.00;99878.13;5013511;28;20552;-66
2023/03/06 01:16:37;;;;;;;5.30;1.40;;;;;;;1.93;100.00;99869.31;5014015;28;20450;-67
2023/03/06 01:19:04;;;;;;;6.23;2.23;;;;;;;1.94;100.00;99852.22;5013765;28;20499;-66
2023/03/06 01:21:31;;;;;;;7.00;1.80;;;;;;;1.98;100.00;99852.50;5013912;28;20440;-65
2023/03/06 01:23:58;;;;;;;7.23;2.20;;;;;;;1.98;100.00;99852.50;5013638;28;20491;-65
2023/03/06 01:26:25;;;;;;;8.27;2.30;;;;;;;1.97;100.00;99840.22;5013570;28;20494;-64
2023/03/06 01:28:51;;;;;;;6.97;2.50;;;;;;;1.97;100.00;99845.56;5013633;28;20535;-63
2023/03/06 01:31:18;;;;;;;9.33;3.30;;;;;;;1.98;100.00;99831.94;5013602;28;20443;-63
2023/03/06 01:33:44;;;;;;;6.50;2.23;;;;;;;2.01;100.00;99838.63;5013503;28;20464;-64
2023/03/06 01:36:12;;;;;;;10.13;3.60;;;;;;;1.97;100.00;99842.91;5013042;28;20450;-63
2023/03/06 01:38:40;;;;;;;8.37;2.73;;;;;;;1.91;100.00;99822.59;5013479;28;20530;-63
2023/03/06 01:41:09;;;;;;;7.40;2.83;;;;;;;1.94;100.00;99827.38;5013454;28;20448;-63
2023/03/06 01:43:37;;;;;;;10.50;3.00;;;;;;;1.96;100.00;99817.25;5013388;28;20840;-61
2023/03/06 01:46:25;;;;;;;8.93;3.10;;;;;;;2.00;100.00;99818.34;5013419;28;20863;-64
2023/03/06 01:48:55;;;;;;;9.17;3.13;;;;;;;1.96;100.00;99811.91;5013031;28;20444;-63
2023/03/06 01:51:25;;;;;;;9.70;3.87;;;;;;;2.01;100.00;99815.41;5013211;28;20941;-63
2023/03/06 01:53:54;;;;;;;12.80;3.27;;;;;;;2.00;100.00;99807.66;5013169;28;20479;-63
2023/03/06 01:56:21;;;;;;;10.10;3.67;;;;;;;2.03;100.00;99802.56;5013258;28;20482;-64
2023/03/06 01:58:48;;;;;;;8.63;3.50;;;;;;;2.09;100.00;99805.28;5013357;28;20440;-63
2023/03/06 02:01:15;;;;;;;9.60;4.20;;;;;;;2.11;100.00;99801.25;5013133;28;21016;-61
2023/03/06 02:03:44;;;;;;;12.77;4.20;;;;;;;2.10;100.00;99799.66;5012778;28;20967;-63
2023/03/06 02:06:11;;;;;;;8.60;3.33;;;;;;;2.13;100.00;99803.69;5013205;28;20484;-63
2023/03/06 02:08:39;;;;;;;7.50;2.80;;;;;;;2.06;100.00;99790.56;5013100;28;20456;-63
2023/03/06 02:11:13;;;;;;;9.30;3.30;;;;;;;2.12;100.00;99796.72;5013278;28;20444;-63
2023/03/06 02:13:40;;;;;;;10.30;3.40;;;;;;;2.15;100.00;99785.50;5012791;28;21011;-63
2023/03/06 02:16:09;;;;;;;10.60;4.87;;;;;;;2.18;100.00;99790.34;5012765;28;20471;-63
2023/03/06 02:18:36;;;;;;;8.33;3.30;;;;;;;2.17;100.00;99786.88;5012758;28;20444;-64
2023/03/06 02:21:06;;;;;;;10.37;3.17;;;;;;;2.20;100.00;99775.63;5013060;28;20454;-63
2023/03/06 02:23:41;;;;;;;13.20;4.67;;;;;;;2.23;100.00;99780.44;5012928;28;20459;-63
2023/03/06 02:26:09;;;;;;;7.73;3.00;;;;;;;2.30;100.00;99776.69;5012664;28;21068;-63
2023/03/06 02:28:36;;;;;;;13.13;3.93;;;;;;;2.33;100.00;99776.97;5012949;28;20451;-63
2023/03/06 02:31:03;;;;;;;7.93;2.67;;;;;;;2.27;100.00;99775.38;5012980;28;20941;-63
2023/03/06 02:33:30;;;;;;;7.17;3.03;;;;;;;2.30;100.00;99763.34;5012907;28;20546;-63
2023/03/06 02:35:58;;;;;;;7.77;3.13;;;;;;;2.34;100.00;99764.41;5013051;28;20475;-63
2023/03/06 02:38:28;;;;;;;8.97;3.13;;;;;;;2.37;100.00;99772.72;5012614;28;21019;-63
2023/03/06 02:40:56;;;;;;;7.83;3.50;;;;;;;2.39;100.00;99764.41;5012991;28;20905;-63
2023/03/06 02:43:28;;;;;;;7.13;2.57;;;;;;;2.39;100.00;99756.41;5012836;28;20883;-63
2023/03/06 02:45:55;;;;;;;10.70;3.23;;;;;;;2.43;100.00;99757.47;5012771;28;20978;-63
2023/03/06 02:48:21;;;;;;;8.93;3.53;;;;;;;2.48;100.00;99754.81;5013505;28;20543;-65
2023/03/06 02:50:49;;;;;;;7.33;3.07;;;;;;;2.50;100.00;99758.00;5016209;28;20448;-63
2023/03/06 02:53:17;;;;;;;8.23;3.03;;;;;;;2.52;100.00;99754.03;5016289;28;20832;-63
2023/03/06 02:55:45;;;;;;;8.10;3.07;;;;;;;2.53;100.00;99755.63;5016481;28;20511;-63
2023/03/06 02:58:11;;;;;;;9.23;3.67;;;;;;;2.57;100.00;99752.38;5016416;28;20462;-63
2023/03/06 03:00:40;;;;;;;9.47;3.20;;;;;;;2.54;100.00;99748.41;5016393;28;20884;-62
2023/03/06 03:03:07;;;;;;;11.43;3.07;;;;;;;2.58;100.00;99741.44;5016525;28;20444;-63
2023/03/06 03:05:34;;;;;;;12.70;3.40;;;;;;;2.58;100.00;99743.31;5015879;28;20494;-64
2023/03/06 03:08:00;;;;;;;7.40;2.87;;;;;;;2.62;100.00;99747.06;5016089;28;20446;-63
2023/03/06 03:10:27;;;;;;;7.60;2.70;;;;;;;2.67;100.00;99744.38;5016114;28;20440;-63
2023/03/06 03:12:54;;;;;;;9.40;3.07;;;;;;;2.64;100.00;99743.03;5015995;28;20450;-63
2023/03/06 03:15:20;;;;;;;12.80;3.27;;;;;;;2.68;100.00;99744.09;5015576;28;20487;-65
2023/03/06 03:17:48;;;;;;;17.23;3.47;;;;;;;2.66;100.00;99743.56;5016087;28;20501;-63
2023/03/06 03:20:18;;;;;;;9.83;2.80;;;;;;;2.65;100.00;99739.28;5015706;28;20937;-63
2023/03/06 03:22:48;;;;;;;6.80;2.43;;;;;;;2.68;100.00;99743.28;5016493;28;20869;-64
2023/03/06 03:25:14;;;;;;;6.83;2.57;;;;;;;2.71;100.00;99742.78;5015385;28;20524;-63
2023/03/06 03:27:41;;;;;;;7.17;2.83;;;;;;;2.81;100.00;99747.28;5015894;28;20467;-63
2023/03/06 03:30:09;;;;;;;11.07;3.60;;;;;;;2.77;100.00;99747.81;5015741;28;20882;-63
2023/03/06 03:32:36;;;;;;;7.13;2.90;;;;;;;2.77;100.00;99744.34;5015713;28;20470;-63
2023/03/06 03:35:04;;;;;;;6.87;2.70;;;;;;;2.83;100.00;99742.47;5015580;28;20543;-63
2023/03/06 03:37:31;;;;;;;7.37;2.50;;;;;;;2.82;100.00;99748.88;5015525;28;20815;-63
2023/03/06 03:39:59;;;;;;;6.80;2.90;;;;;;;2.80;100.00;99751.03;5015488;28;20451;-63
2023/03/06 03:42:25;;;;;;;7.00;2.83;;;;;;;2.72;100.00;99752.38;5015571;28;20452;-63
2023/03/06 03:44:52;;;;;;;7.70;2.63;;;;;;;2.64;100.00;99764.41;5014922;28;20464;-63
2023/03/06 03:47:18;;;;;;;7.23;2.47;;;;;;;2.62;100.00;99765.78;5015392;28;20547;-62
2023/03/06 03:49:45;;;;;;;7.70;2.53;;;;;;;2.55;100.00;99767.91;5015334;28;20452;-63
2023/03/06 03:52:13;;;;;;;10.97;3.10;;;;;;;2.45;100.00;99769.50;5015354;28;20447;-63
2023/03/06 03:54:39;;;;;;;9.07;2.90;;;;;;;2.38;100.00;99770.84;5014811;28;20574;-63
2023/03/06 03:57:06;;;;;;;7.03;2.37;;;;;;;2.38;100.00;99773.50;5015287;28;20475;-64
2023/03/06 03:59:33;;;;;;;7.27;2.33;;;;;;;2.32;100.00;99775.38;5014858;28;20992;-63
2023/03/06 04:01:59;;;;;;;7.10;2.20;;;;;;;2.20;100.00;99772.97;5014945;28;20455;-63
2023/03/06 04:04:26;;;;;;;5.23;1.83;;;;;;;2.15;100.00;99764.16;5014966;28;20463;-64
2023/03/06 04:06:52;;;;;;;7.30;1.60;;;;;;;2.09;100.00;99762.53;5014706;28;20847;-63
2023/03/06 04:09:22;;;;;;;6.60;2.33;;;;;;;2.08;100.00;99760.91;5014986;28;20522;-65
2023/03/06 04:11:48;;;;;;;6.83;1.90;;;;;;;2.10;100.00;99764.94;5014970;28;20446;-64
2023/03/06 04:14:15;;;;;;;5.47;1.70;;;;;;;2.07;100.00;99767.34;5014625;28;20555;-64
2023/03/06 04:16:42;;;;;;;5.20;1.70;;;;;;;2.06;100.00;99769.19;5014802;28;20440;-64
2023/03/06 04:19:08;;;;;;;5.57;1.70;;;;;;;2.03;100.00;99759.84;5014823;28;20444;-64
2023/03/06 04:21:35;;;;;;;5.80;1.43;;;;;;;1.93;100.00;99761.69;5014499;28;20536;-64
2023/03/06 04:24:02;;;;;;;6.83;1.63;;;;;;;1.92;100.00;99763.56;5014373;28;20535;-63
2023/03/06 04:26:30;;;;;;;5.43;1.50;;;;;;;1.84;100.00;99768.63;5014350;28;21017;-64
2023/03/06 04:28:57;;;;;;;5.30;1.50;;;;;;;1.87;100.00;99768.09;5014553;28;20444;-63
2023/03/06 04:31:24;;;;;;;7.10;2.30;;;;;;;1.85;100.00;99771.03;5014540;28;20444;-63
2023/03/06 04:33:50;;;;;;;5.63;1.50;;;;;;;1.89;100.00;99779.31;5014512;28;20459;-62
2023/03/06 04:36:26;;;;;;;5.03;1.30;;;;;;;1.89;100.00;99788.13;5014499;28;20476;-63
2023/03/06 04:38:53;;;;;;;5.30;1.17;;;;;;;1.86;100.00;99783.34;5014485;28;20439;-63
2023/03/06 04:41:19;;;;;;;7.90;1.90;;;;;;;1.82;100.00;99789.47;5014167;28;20536;-63
2023/03/06 04:43:47;;;;;;;7.20;1.47;;;;;;;1.85;100.00;99787.03;5014029;28;20843;-63
2023/03/06 04:46:14;;;;;;;5.53;1.67;;;;;;;1.74;100.00;99790.75;5014362;28;20486;-63
2023/03/06 04:48:41;;;;;;;5.50;1.50;;;;;;;1.73;100.00;99784.63;5013950;28;20937;-64
2023/03/06 04:51:07;;;;;;;7.33;2.00;;;;;;;1.76;100.00;99789.41;5014303;28;20456;-64
2023/03/06 04:53:34;;;;;;;5.60;1.90;;;;;;;1.80;100.00;99787.03;5013689;28;20555;-65
2023/03/06 04:56:00;;;;;;;6.43;1.30;;;;;;;1.72;100.00;99791.00;5014225;28;20436;-64
2023/03/06 04:58:27;;;;;;;5.57;1.40;;;;;;;1.69;100.00;99780.88;5014329;28;20444;-63
2023/03/06 05:00:55;;;;;;;6.10;1.90;;;;;;;1.67;100.00;99785.66;5013720;28;21005;-64
2023/03/06 05:03:22;;;;;;;5.67;1.47;;;;;;;1.74;100.00;99790.75;5013955;28;20464;-66
2023/03/06 05:05:48;;;;;;;5.53;1.43;;;;;;;1.79;100.00;99779.28;5014085;28;20578;-67
2023/03/06 05:08:16;;;;;;;5.53;1.57;;;;;;;1.83;100.00;99789.19;5013799;28;20486;-66
2023/03/06 05:10:44;;;;;;;6.03;1.40;;;;;;;1.87;100.00;99792.13;5013534;28;20483;-66
2023/03/06 05:13:11;;;;;;;7.63;2.00;;;;;;;1.81;100.00;99793.16;5013835;28;20527;-65
2023/03/06 05:15:40;;;;;;;5.90;1.70;;;;;;;1.72;100.00;99785.66;5013625;28;20486;-67
2023/03/06 05:18:08;;;;;;;5.80;2.00;;;;;;;1.69;100.00;99786.22;5014017;28;20433;-66
2023/03/06 05:20:35;;;;;;;8.90;2.27;;;;;;;1.63;100.00;99794.44;5013829;28;20450;-66
2023/03/06 05:23:02;;;;;;;6.37;1.77;;;;;;;1.61;100.00;99799.25;5013625;28;20456;-66
2023/03/06 05:25:28;;;;;;;5.10;1.47;;;;;;;1.65;100.00;99793.13;5013384;28;20452;-64
2023/03/06 05:27:55;;;;;;;6.23;2.10;;;;;;;1.61;100.00;99802.72;5013609;28;20809;-66
2023/03/06 05:30:22;;;;;;;7.70;2.27;;;;;;;1.62;100.00;99801.66;5013605;28;20448;-65
2023/03/06 05:32:48;;;;;;;7.97;2.87;;;;;;;1.65;100.00;99798.47;5013300;28;20941;-66
2023/03/06 05:35:19;;;;;;;8.57;2.80;;;;;;;1.68;100.00;99799.78;5013100;28;20914;-67
2023/03/06 05:37:46;;;;;;;8.60;3.17;;;;;;;1.68;100.00;99799.78;5013295;28;20464;-67
2023/03/06 05:40:13;;;;;;;8.00;2.50;;;;;;;1.73;100.00;99802.50;5013540;28;20535;-66
2023/03/06 05:42:40;;;;;;;6.70;2.33;;;;;;;1.72;100.00;99800.88;5013216;28;20444;-66
2023/03/06 05:45:07;;;;;;;6.17;1.97;;;;;;;1.68;100.00;99799.78;5013405;28;20551;-67
2023/03/06 05:47:34;;;;;;;7.23;2.20;;;;;;;1.69;100.00;99796.09;5013249;28;20490;-66
2023/03/06 05:50:00;;;;;;;7.13;2.10;;;;;;;1.63;100.00;99795.25;5013332;28;20882;-65
2023/03/06 05:52:28;;;;;;;5.63;1.93;;;;;;;1.65;100.00;99795.81;5013288;28;20444;-66
2023/03/06 05:54:55;;;;;;;5.10;1.30;;;;;;;1.60;100.00;99798.47;5012900;28;20478;-66
2023/03/06 05:57:23;;;;;;;6.27;1.80;;;;;;;1.60;100.00;99793.13;5013307;28;20436;-67
2023/03/06 05:59:50;;;;;;;6.03;1.50;;;;;;;1.61;100.00;99800.06;5013194;28;20450;-66
2023/03/06 06:02:17;;;;;;;14.60;2.07;;;;;;;1.61;100.00;99796.59;5013142;28;20444;-66
2023/03/06 06:04:44;;;;;;;5.60;1.70;;;;;;;1.65;100.00;99801.13;5013375;28;20479;-67
2023/03/06 06:07:13;;;;;;;5.23;1.50;;;;;;;1.67;100.00;99793.66;5013113;28;20538;-64
2023/03/06 06:09:42;;;;;;;6.60;2.20;;;;;;;1.65;100.00;99795.81;5013008;28;20933;-64
2023/03/06 06:12:09;;;;;;;6.43;1.43;;;;;;;1.66;100.00;99797.41;5013165;28;20440;-64
2023/03/06 06:14:35;;;;;;;9.93;2.07;;;;;;;1.69;100.00;99798.75;5012745;28;20897;-64
2023/03/06 06:17:02;;;;;;;7.03;2.10;;;;;;;1.70;100.00;99793.16;5013081;28;20518;-64
2023/03/06 06:19:29;;;;;;;5.73;1.77;;;;;;;1.68;100.00;99795.28;5013082;28;20446;-64
2023/03/06 06:21:56;;;;;;;5.73;1.47;;;;;;;1.67;100.00;99799.00;5013148;28;20450;-66
2023/03/06 06:24:25;;;;;;;5.33;1.63;;;;;;;1.70;100.00;99803.81;5015450;28;20496;-67
2023/03/06 06:26:54;;;;;;;6.33;1.57;;;;;;;1.68;100.00;99807.81;5016899;28;20571;-66
2023/03/06 06:29:21;;;;;;;8.57;2.13;;;;;;;1.60;100.00;99809.13;5016906;28;20878;-67
2023/03/06 06:31:48;;;;;;;4.87;1.37;;;;;;;1.62;100.00;99809.66;5016881;28;20539;-66
2023/03/06 06:34:15;;;;;;;6.30;2.23;;;;;;;1.67;100.00;99807.00;5016464;28;20973;-66
2023/03/06 06:36:41;;;;;;;7.80;2.10;;;;;;;1.56;100.00;99816.06;5016753;28;20440;-66
2023/03/06 06:39:10;;;;;;;7.67;2.80;;;;;;;1.60;100.00;99814.47;5016476;28;20494;-64
2023/03/06 06:41:37;;;;;;;8.27;2.23;;;;;;;1.61;100.00;99817.94;5016713;28;20436;-64
2023/03/06 06:44:06;;;;;;;8.20;2.30;;;;;;;1.62;100.00;99816.88;5016287;28;21012;-66
2023/03/06 06:46:33;;;;;;;5.30;1.43;;;;;;;1.62;100.00;99816.88;5016224;28;21078;-66
2023/03/06 06:49:01;;;;;;;9.97;1.70;;;;;;;1.58;100.00;99821.13;5016618;28;20818;-65
2023/03/06 06:51:31;;;;;;;6.33;1.77;;;;;;;1.56;100.00;99818.72;5016652;28;20478;-64
2023/03/06 06:53:58;;;;;;;8.20;2.07;;;;;;;1.59;100.00;99818.19;5017255;28;20480;-66
2023/03/06 06:56:24;;;;;;;6.73;2.27;;;;;;;1.57;100.00;99820.31;5016389;28;20527;-65
2023/03/06 06:58:51;;;;;;;7.03;2.37;;;;;;;1.59;100.00;99822.72;5016050;28;20530;-67
2023/03/06 07:01:19;;;;;;;6.77;2.03;;;;;;;1.58;100.00;99821.91;5016361;28;20450;-69
2023/03/06 07:03:46;;;;;;;9.20;2.00;;;;;;;1.47;100.00;99814.94;5016187;28;20977;-69
2023/03/06 07:06:13;;;;;;;8.50;2.00;;;;;;;1.46;100.00;99815.97;5015701;28;20967;-69
2023/03/06 07:08:39;;;;;;;4.53;1.00;;;;;;;1.46;100.00;99814.16;5015912;28;20530;-69
2023/03/06 07:11:08;;;;;;;5.10;1.30;;;;;;;1.43;100.00;99813.84;5016031;28;20475;-70
2023/03/06 07:13:35;;;;;;;6.60;1.87;;;;;;;1.47;100.00;99820.28;5015860;28;20808;-70
2023/03/06 07:16:02;;;;;;;6.67;1.43;;;;;;;1.48;100.00;99816.53;5015929;28;20487;-69
2023/03/06 07:18:30;;;;;;;5.80;1.57;;;;;;;1.47;100.00;99815.75;5015828;28;20476;-69
2023/03/06 07:20:57;;;;;;;7.70;1.67;;;;;;;1.48;100.00;99816.53;5015788;28;20436;-70
2023/03/06 07:23:25;;;;;;;6.70;2.00;;;;;;;1.44;100.00;99815.44;5015730;28;20544;-71
2023/03/06 07:25:52;;;;;;;7.00;2.00;;;;;;;1.52;100.00;99813.09;5015696;28;20444;-70
2023/03/06 07:28:18;;;;;;;6.87;2.03;;;;;;;1.58;100.00;99813.91;5015628;28;20944;-69
2023/03/06 07:30:45;;;;;;;8.33;2.33;;;;;;;1.69;100.00;99814.78;5015724;28;20531;-70
2023/03/06 07:33:12;;;;;;;6.83;2.47;;;;;;;1.73;100.00;99813.19;5015488;28;20438;-71
2023/03/06 07:35:40;;;;;;;8.00;1.90;;;;;;;1.79;100.00;99814.81;5014895;28;20955;-70
2023/03/06 07:38:07;;;;;;;7.67;2.30;;;;;;;1.84;100.00;99809.47;5015468;28;20539;-69
2023/03/06 07:40:33;;;;;;;5.87;1.63;;;;;;;1.90;100.00;99813.75;5015073;28;20967;-70
2023/03/06 07:43:00;;;;;;;7.93;2.13;;;;;;;1.90;100.00;99811.09;5015427;28;20482;-69
2023/03/06 07:45:27;;;;;;;5.77;1.63;;;;;;;1.96;100.00;99815.38;5015167;28;20488;-70
2023/03/06 07:47:54;;;;;;;6.70;1.97;;;;;;;2.00;100.00;99811.13;5015269;28;20527;-70
2023/03/06 07:50:21;;;;;;;6.10;1.60;;;;;;;1.98;100.00;99815.13;5014986;28;20450;-71
2023/03/06 07:52:50;;;;;;;6.60;1.90;;;;;;;1.95;100.00;99813.78;5015431;28;20898;-70
2023/03/06 07:55:17;;;;;;;6.20;1.77;;;;;;;2.04;100.00;99814.09;5014866;28;20475;-69
2023/03/06 07:57:44;;;;;;;8.63;2.33;;;;;;;2.08;100.00;99809.81;5014954;28;20436;-69
2023/03/06 08:00:13;;;;;;;6.77;2.07;;;;;;;2.11;100.00;99817.28;5015237;28;20466;-69
2023/03/06 08:02:41;;;;;;;6.33;1.70;;;;;;;2.15;100.00;99805.00;5014916;28;21021;-70
2023/03/06 08:05:09;;;;;;;8.47;2.80;;;;;;;2.24;100.00;99807.97;5014984;28;21011;-69
2023/03/06 08:07:36;;;;;;;9.70;2.50;;;;;;;2.25;100.00;99807.69;5014961;28;20531;-69
2023/03/06 08:10:05;;;;;;;6.27;2.07;;;;;;;2.34;100.00;99810.63;5014961;28;20436;-69
2023/03/06 08:12:32;;;;;;;6.37;2.30;;;;;;;2.41;100.00;99818.41;5014708;28;20526;-68
2023/03/06 08:14:58;;;;;;;6.80;2.40;;;;;;;2.46;100.00;99816.53;5014902;28;20460;-69
2023/03/06 08:17:25;;;;;;;9.10;1.90;;;;;;;2.36;100.00;99816.53;5014958;28;20526;-69
2023/03/06 08:19:51;;;;;;;6.60;1.63;;;;;;;2.33;100.00;99809.03;5014925;28;20534;-69
2023/03/06 08:22:18;;;;;;;7.13;1.90;;;;;;;2.37;100.00;99817.34;5014928;28;20451;-69
2023/03/06 08:24:45;;;;;;;8.90;2.33;;;;;;;2.41;100.00;99818.41;5014738;28;20464;-69
2023/03/06 08:27:12;;;;;;;5.80;1.90;;;;;;;2.48;100.00;99819.75;5014436;28;21008;-68
2023/03/06 08:29:39;;;;;;;6.97;2.17;;;;;;;2.58;100.00;99828.84;5014818;28;20535;-67
2023/03/06 08:32:06;;;;;;;5.70;1.43;;;;;;;2.55;100.00;99827.50;5014746;28;20447;-68
2023/03/06 08:34:33;;;;;;;5.67;1.40;;;;;;;2.51;100.00;99821.09;5014283;28;20988;-67
2023/03/06 08:36:59;;;;;;;5.23;1.33;;;;;;;2.50;100.00;99832.84;5014563;28;20448;-69
2023/03/06 08:39:26;;;;;;;6.50;1.60;;;;;;;2.53;100.00;99825.09;5014158;28;20773;-67
2023/03/06 08:41:52;;;;;;;6.10;1.77;;;;;;;2.58;100.00;99829.66;5014515;28;20455;-68
2023/03/06 08:44:20;;;;;;;6.30;1.67;;;;;;;2.63;100.00;99837.66;5014359;28;20879;-66
2023/03/06 08:46:47;;;;;;;6.37;1.50;;;;;;;2.58;100.00;99831.53;5013582;28;20436;-67
2023/03/06 08:49:13;;;;;;;6.70;1.83;;;;;;;2.58;100.00;99836.88;5014023;28;20446;-67
2023/03/06 08:51:41;;;;;;;6.73;1.43;;;;;;;2.57;100.00;99840.59;5013987;28;20483;-65
2023/03/06 08:54:08;;;;;;;6.17;1.60;;;;;;;2.59;100.00;99843.81;5014077;28;20491;-67
2023/03/06 08:56:34;;;;;;;6.60;1.60;;;;;;;2.52;100.00;99834.19;5014224;28;20476;-67
2023/03/06 08:59:03;;;;;;;6.07;1.33;;;;;;;2.55;100.00;99835.53;5014079;28;20440;-66
2023/03/06 09:01:33;;;;;;;6.60;1.90;;;;;;;2.53;100.00;99843.03;5013855;28;20436;-66
2023/03/06 09:04:03;;;;;;;6.60;1.57;;;;;;;2.56;100.00;99839.00;5013985;28;20464;-66
2023/03/06 09:06:32;;;;;;;5.83;1.40;;;;;;;2.58;100.00;99839.53;5013981;28;20440;-65
2023/03/06 09:08:58;;;;;;;6.93;2.00;;;;;;;2.56;100.00;99844.34;5013788;28;20579;-64
2023/03/06 09:11:26;;;;;;;9.13;1.80;;;;;;;2.57;100.00;99836.06;5013641;28;20475;-64
2023/03/06 09:13:54;;;;;;;5.90;1.87;;;;;;;2.61;100.00;99839.81;5013640;28;20464;-65
2023/03/06 09:16:21;;;;;;;5.23;1.40;;;;;;;2.60;100.00;99842.75;5013974;28;20444;-65
2023/03/06 09:18:49;;;;;;;7.50;1.60;;;;;;;2.58;100.00;99840.34;5014204;28;20443;-64
2023/03/06 09:21:16;;;;;;;5.20;1.43;;;;;;;2.63;100.00;99839.53;5013541;28;20448;-63
2023/03/06 09:23:43;;;;;;;5.63;1.63;;;;;;;2.64;100.00;99838.47;5013801;28;20468;-64
2023/03/06 09:26:11;;;;;;;6.30;1.30;;;;;;;2.69;100.00;99835.78;5013976;28;20456;-64
2023/03/06 09:28:39;;;;;;;5.00;1.20;;;;;;;2.75;100.00;99840.88;5013643;28;20902;-63
2023/03/06 09:31:11;;;;;;;5.70;1.37;;;;;;;2.75;100.00;99842.75;5013723;28;20450;-63
2023/03/06 09:33:38;;;;;;;5.53;1.57;;;;;;;2.77;100.00;99838.75;5013679;28;20452;-64
2023/03/06 09:36:07;;;;;;;6.07;1.33;;;;;;;2.76;100.00;99844.38;5013609;28;20467;-67
2023/03/06 09:38:34;;;;;;;5.50;1.50;;;;;;;2.76;100.00;99845.16;5013558;28;20538;-66
2023/03/06 09:41:08;;;;;;;6.63;1.33;;;;;;;2.76;100.00;99841.69;5013192;28;20964;-66
2023/03/06 09:43:37;;;;;;;5.43;1.30;;;;;;;2.74;100.00;99844.59;5013449;28;20499;-64
2023/03/06 09:46:17;;;;;;;5.10;1.00;;;;;;;2.71;100.00;99839.81;5013329;28;20448;-64
2023/03/06 09:48:53;;;;;;;6.20;1.37;;;;;;;2.67;100.00;99844.09;5013027;28;20494;-64
2023/03/06 09:51:27;;;;;;;4.90;1.13;;;;;;;2.69;100.00;99849.16;5013432;28;20430;-64
2023/03/06 09:54:03;;;;;;;4.90;1.17;;;;;;;2.67;100.00;99845.97;5012890;28;20587;-64
2023/03/06 09:56:34;;;;;;;5.40;1.30;;;;;;;2.67;100.00;99854.78;5013433;28;20486;-66
2023/03/06 09:59:07;;;;;;;6.20;1.30;;;;;;;2.66;100.00;99847.84;5013051;28;20424;-65
2023/03/06 10:01:39;;;;;;;7.40;1.80;;;;;;;2.59;100.00;99847.28;5012832;28;20932;-64
2023/03/06 10:04:16;;;;;;;5.40;1.53;;;;;;;2.67;100.00;99851.31;5013340;28;20546;-64
2023/03/06 10:06:49;;;;;;;6.23;1.67;;;;;;;2.73;100.00;99852.91;5013287;28;20438;-64
2023/03/06 10:09:20;;;;;;;5.23;1.37;;;;;;;2.70;100.00;99854.25;5013002;28;20467;-64
2023/03/06 10:11:49;;;;;;;11.10;1.60;;;;;;;2.63;100.00;99853.72;5013434;28;20542;-64
2023/03/06 10:14:27;;;;;;;5.93;1.47;;;;;;;2.71;100.00;99852.38;5012772;28;20988;-64
2023/03/06 10:16:53;;;;;;;6.40;1.80;;;;;;;2.81;100.00;99848.91;5012856;28;20886;-62
2023/03/06 10:19:21;;;;;;;8.00;1.77;;;;;;;2.86;100.00;99855.06;5013143;28;20814;-65
2023/03/06 10:21:58;;;;;;;6.50;1.50;;;;;;;2.85;100.00;99855.31;5012816;28;20448;-64
2023/03/06 10:24:39;;;;;;;7.80;1.70;;;;;;;2.81;100.00;99851.59;5012665;28;21007;-65
2023/03/06 10:27:16;;;;;;;11.60;1.20;;;;;;;2.82;100.00;99850.50;5012981;28;20428;-64
2023/03/06 10:29:54;;;;;;;5.07;1.23;;;;;;;2.80;100.00;99855.34;5013000;28;20435;-64
2023/03/06 10:32:27;;;;;;;6.60;1.77;;;;;;;2.66;100.00;99857.75;5013112;28;20426;-64
2023/03/06 10:34:59;;;;;;;7.10;1.73;;;;;;;2.75;100.00;99850.78;5012576;28;20550;-64
2023/03/06 10:37:28;;;;;;;5.20;1.40;;;;;;;2.83;100.00;99846.75;5012684;28;20425;-66
2023/03/06 10:40:00;;;;;;;5.00;1.07;;;;;;;2.87;100.00;99853.97;5013002;28;20531;-64
2023/03/06 10:42:27;;;;;;;5.30;0.77;;;;;;;2.96;100.00;99851.56;5012953;28;20523;-66
2023/03/06 10:45:08;;;;;;;8.73;1.67;;;;;;;2.98;100.00;99854.78;5013164;28;20475;-64
2023/03/06 10:47:36;;;;;;;4.73;1.17;;;;;;;3.06;100.00;99856.94;5012481;28;20474;-64
2023/03/06 10:50:07;;;;;;;4.40;0.90;;;;;;;3.11;100.00;99854.25;5012484;28;20444;-65
2023/03/06 10:52:35;;;;;;;5.10;1.33;;;;;;;3.21;100.00;99850.75;5012409;28;20950;-64
2023/03/06 10:55:26;;;;;;;4.47;0.97;;;;;;;3.22;100.00;99853.13;5012518;28;20486;-65
2023/03/06 10:57:53;;;;;;;6.57;1.30;;;;;;;3.05;98.83;99849.94;5012801;28;20440;-65
2023/03/06 11:00:34;;;;;;;5.20;1.30;;;;;;;2.97;100.00;99851.31;5012750;28;20452;-65
2023/03/06 11:03:18;;;;;;;6.63;1.50;;;;;;;2.94;100.00;99848.38;5012809;28;20441;-65
2023/03/06 11:05:57;;;;;;;4.47;0.80;;;;;;;3.09;100.00;99845.66;5012691;28;20463;-67
2023/03/06 11:08:24;;;;;;;6.13;1.20;;;;;;;3.09;100.00;99853.69;5012530;28;20510;-68
2023/03/06 11:11:00;;;;;;;5.17;0.97;;;;;;;3.18;100.00;99854.75;5015932;28;20475;-64
2023/03/06 11:13:32;;;;;;;7.30;1.27;;;;;;;3.03;98.49;99854.78;5015989;28;20813;-65
2023/03/06 11:16:16;;;;;;;5.83;1.40;;;;;;;3.00;99.27;99847.28;5015852;28;20417;-65
2023/03/06 11:18:55;;;;;;;5.93;1.13;;;;;;;3.06;99.99;99850.78;5016369;28;20424;-65
2023/03/06 11:21:28;;;;;;;5.03;0.80;;;;;;;3.15;100.00;99843.81;5016150;28;20421;-65
2023/03/06 11:24:01;;;;;;;5.10;1.27;;;;;;;3.24;100.00;99842.97;5015736;28;20470;-65
2023/03/06 11:26:34;;;;;;;5.20;1.20;;;;;;;3.40;100.00;99845.63;5015961;28;20428;-65
2023/03/06 11:29:18;;;;;;;5.37;1.30;;;;;;;3.50;99.29;99845.59;5016069;28;20468;-65
2023/03/06 11:31:50;;;;;;;4.60;1.00;;;;;;;3.51;98.25;99834.63;5016014;28;20430;-64
2023/03/06 11:34:23;;;;;;;4.30;0.90;;;;;;;3.47;97.34;99840.78;5015993;28;20457;-65
2023/03/06 11:36:54;;;;;;;4.77;1.17;;;;;;;3.45;95.77;99837.56;5015450;28;20434;-65
2023/03/06 11:39:32;;;;;;;5.80;1.10;;;;;;;3.44;94.03;99833.28;5015984;28;20431;-65